Jevne, Minnesota
Current Conditions -  °F | °C
As of 4:47 PM on Monday 24 Nov 2014 (Local Time) from KHZX Reporting Station
Overcast Overcast  
Wind Chill: -16°   Ceiling: 8000
Heat Index: -7°   Visibility: 10mi
Dew Point: -11°   Wind: 18mph
Humidity: 74%   Direction: 320°NW
Pressure: 29.65"   Gusts: 25mph
Location:  46.7232°N, 93.3159°W
Report Text: KHZX 242247Z AUTO 32016G22KT 10SM SCT023 OVC080 M07/M11 A2965 RMK AO2
Loading
Personal Weather Stations






























Interactive Weather Map New forecast layout! Learn more

10-Day Weather Forecast

Advertisements
Track Severe Weather on mobile